Time;durP1;ratioP1;P1;durP2;ratioP2;P2;SDS_P1;SDS_P2;PMS_P1;PMS_P2;Temp;Humidity;BMP_temperature;BMP_pressure;BME280_temperature;BME280_humidity;BME280_pressure;Samples;Min_cycle;Max_cycle;Signal;HPM_P1;HPM_P2
2022/10/11 00:00:37;;;;;;;7.30;5.35;;;6.50;96.40;;;;;;5092984;28;20107;-79
2022/10/11 00:03:03;;;;;;;13.07;5.45;;;6.50;96.50;;;;;;5082554;28;20487;-81
2022/10/11 00:05:29;;;;;;;7.13;4.47;;;6.40;96.40;;;;;;5095486;28;20040;-80
2022/10/11 00:07:55;;;;;;;8.65;5.50;;;6.40;96.50;;;;;;5077500;28;20461;-80
2022/10/11 00:10:21;;;;;;;6.47;5.13;;;6.40;96.50;;;;;;5095790;28;20396;-80
2022/10/11 00:12:48;;;;;;;9.07;5.80;;;6.40;96.40;;;;;;5095326;28;20212;-81
2022/10/11 00:15:18;;;;;;;9.43;5.67;;;6.40;96.50;;;;;;5095160;28;20033;-80
2022/10/11 00:17:44;;;;;;;9.18;5.25;;;6.30;96.60;;;;;;5094940;28;20447;-80
2022/10/11 00:20:10;;;;;;;10.13;6.32;;;6.30;96.70;;;;;;5082574;28;20488;-80
2022/10/11 00:22:37;;;;;;;7.00;5.07;;;6.30;96.70;;;;;;5095098;28;20028;-81
2022/10/11 00:25:05;;;;;;;9.82;5.57;;;6.30;96.80;;;;;;5058528;28;20032;-81
2022/10/11 00:27:30;;;;;;;;;;;6.30;96.80;;;;;;5088588;28;20452;-81
2022/10/11 00:29:56;;;;;;;7.88;4.97;;;6.30;96.60;;;;;;5094950;28;20003;-79
2022/10/11 00:32:22;;;;;;;8.90;5.38;;;6.30;96.60;;;;;;5096238;28;20509;-81
2022/10/11 00:34:48;;;;;;;8.88;5.80;;;6.30;96.70;;;;;;5097674;28;20107;-82
2022/10/11 00:37:14;;;;;;;11.32;6.43;;;6.30;96.80;;;;;;5096632;28;20393;-80
2022/10/11 00:39:39;;;;;;;12.38;6.65;;;6.20;96.80;;;;;;5105640;28;20020;-80
2022/10/11 00:42:14;;;;;;;9.65;5.63;;;6.20;96.90;;;;;;5098925;28;20481;-83
2022/10/11 00:44:46;;;;;;;11.82;5.40;;;6.20;97.00;;;;;;5068890;28;20024;-81
2022/10/11 00:47:20;;;;;;;12.90;5.35;;;6.20;97.00;;;;;;5092125;28;20050;-81
2022/10/11 00:49:54;;;;;;;10.10;5.57;;;6.20;96.90;;;;;;5096031;28;20047;-81
2022/10/11 00:52:30;;;;;;;6.70;5.25;;;6.20;96.90;;;;;;5097684;28;20020;-79
2022/10/11 00:55:01;;;;;;;9.50;5.55;;;6.20;96.90;;;;;;5067205;28;20020;-81
2022/10/11 00:57:30;;;;;;;8.75;5.97;;;6.20;96.90;;;;;;5094458;28;20024;-80
2022/10/11 00:59:56;;;;;;;7.78;5.18;;;6.20;96.90;;;;;;5075949;28;20495;-80
2022/10/11 01:02:23;;;;;;;10.77;5.45;;;6.10;96.90;;;;;;5076597;28;20027;-80
2022/10/11 01:04:50;;;;;;;9.00;5.65;;;6.10;96.90;;;;;;5094326;28;20035;-81
2022/10/11 01:07:18;;;;;;;6.25;4.85;;;6.10;97.00;;;;;;5095208;28;20500;-80
2022/10/11 01:09:44;;;;;;;7.65;5.07;;;6.00;97.00;;;;;;5093015;28;20519;-80
2022/10/11 01:12:17;;;;;;;10.38;5.07;;;6.00;97.00;;;;;;5075413;28;20021;-80
2022/10/11 01:15:01;;;;;;;11.57;5.50;;;5.90;97.00;;;;;;5077048;28;20019;-80
2022/10/11 01:17:51;;;;;;;9.27;5.32;;;5.90;97.10;;;;;;5083055;28;20034;-81
2022/10/11 01:20:20;;;;;;;7.25;4.28;;;6.00;97.20;;;;;;5064271;28;20105;-82
2022/10/11 01:23:00;;;;;;;8.40;5.68;;;6.00;97.10;;;;;;5091833;28;20401;-79
2022/10/11 01:25:47;;;;;;;8.10;5.47;;;6.00;97.10;;;;;;5085721;28;20042;-80
2022/10/11 01:28:31;;;;;;;11.15;5.57;;;6.00;97.10;;;;;;5079369;28;20033;-80
2022/10/11 01:31:07;;;;;;;8.55;4.57;;;5.90;97.10;;;;;;5090670;28;20074;-81
2022/10/11 01:33:51;;;;;;;12.85;6.13;;;5.90;97.20;;;;;;5085491;28;20043;-81
2022/10/11 01:36:32;;;;;;;8.88;5.03;;;5.90;97.20;;;;;;5090671;28;20024;-81
2022/10/11 01:39:34;;;;;;;10.10;5.85;;;5.80;97.20;;;;;;5094166;28;20106;-81
2022/10/11 01:42:03;;;;;;;11.27;5.18;;;5.80;97.20;;;;;;5054201;28;20088;-81
2022/10/11 01:44:31;;;;;;;9.13;4.65;;;5.80;97.20;;;;;;5093520;28;20501;-80
2022/10/11 01:46:56;;;;;;;7.20;4.82;;;5.80;97.30;;;;;;5092855;28;20040;-81
2022/10/11 01:49:22;;;;;;;9.75;6.03;;;5.80;97.30;;;;;;5094019;28;20035;-81
2022/10/11 01:51:52;;;;;;;8.95;4.80;;;5.80;97.30;;;;;;5094152;28;20014;-81
2022/10/11 01:54:39;;;;;;;9.23;5.30;;;5.80;97.30;;;;;;5094707;28;20024;-82
2022/10/11 01:57:45;;;;;;;7.95;4.68;;;5.70;97.40;;;;;;5104506;28;20141;-81
2022/10/11 02:00:23;;;;;;;7.00;5.63;;;5.80;97.40;;;;;;5055035;28;20047;-79
2022/10/11 02:03:07;;;;;;;9.70;5.22;;;5.80;97.30;;;;;;5074656;28;20032;-81
2022/10/11 02:06:07;;;;;;;7.18;5.22;;;5.80;97.20;;;;;;5093741;28;20028;-82
2022/10/11 02:09:12;;;;;;;7.47;5.18;;;5.80;97.20;;;;;;5075167;28;20026;-80
2022/10/11 02:11:38;;;;;;;7.18;4.85;;;5.80;97.20;;;;;;5075586;28;20115;-81
2022/10/11 02:14:10;;;;;;;9.15;5.20;;;5.80;97.20;;;;;;5093186;28;20552;-81
2022/10/11 02:17:06;;;;;;;8.27;5.65;;;5.80;97.30;;;;;;5093744;28;20092;-81
2022/10/11 02:19:38;;;;;;;8.60;5.18;;;5.70;97.40;;;;;;5082739;28;20127;-81
2022/10/11 02:22:11;;;;;;;9.77;4.68;;;5.80;97.40;;;;;;5087168;28;20140;-80
2022/10/11 02:24:41;;;;;;;8.02;5.35;;;5.80;97.30;;;;;;5086312;28;20122;-81
2022/10/11 02:27:09;;;;;;;11.10;5.32;;;5.80;97.30;;;;;;5103389;28;20013;-82
2022/10/11 02:29:36;;;;;;;;;;;5.80;97.20;;;;;;5101224;28;20439;-83
2022/10/11 02:32:03;;;;;;;13.90;6.18;;;5.80;97.00;;;;;;5093705;28;19912;-83
2022/10/11 02:34:28;;;;;;;9.05;5.60;;;5.80;97.00;;;;;;5088679;28;20193;-81
2022/10/11 02:37:18;;;;;;;9.88;5.93;;;5.70;97.10;;;;;;5084116;28;20052;-82
2022/10/11 02:39:47;;;;;;;12.10;5.55;;;5.70;97.30;;;;;;5075405;28;20024;-82
2022/10/11 02:42:19;;;;;;;10.88;6.13;;;5.60;97.30;;;;;;5093284;28;20070;-82
2022/10/11 02:44:58;;;;;;;8.48;5.60;;;5.60;97.50;;;;;;5074878;28;20110;-82
2022/10/11 02:47:25;;;;;;;9.63;5.85;;;5.60;97.60;;;;;;5093025;28;20385;-82
2022/10/11 02:49:50;;;;;;;11.18;5.47;;;5.60;97.70;;;;;;5091753;28;20016;-83
2022/10/11 02:52:16;;;;;;;9.05;5.68;;;5.60;97.70;;;;;;5087405;28;20048;-83
2022/10/11 02:54:42;;;;;;;11.38;5.65;;;5.50;97.80;;;;;;5092676;28;20058;-80
2022/10/11 02:57:08;;;;;;;8.73;5.68;;;5.50;97.80;;;;;;5074545;28;20389;-81
2022/10/11 02:59:34;;;;;;;7.57;5.47;;;5.50;97.80;;;;;;5093035;28;20027;-81
2022/10/11 03:01:59;;;;;;;8.82;5.82;;;5.50;97.80;;;;;;5074965;28;20024;-80
2022/10/11 03:04:25;;;;;;;10.05;5.32;;;5.50;97.80;;;;;;5092621;28;20381;-80
2022/10/11 03:06:51;;;;;;;8.23;4.78;;;5.60;97.80;;;;;;5072330;28;20823;-80
2022/10/11 03:09:17;;;;;;;9.93;5.55;;;5.60;97.60;;;;;;5089571;28;20485;-80
2022/10/11 03:11:43;;;;;;;8.32;5.40;;;5.60;97.50;;;;;;5092515;28;20526;-83
2022/10/11 03:14:08;;;;;;;10.85;6.32;;;5.60;97.50;;;;;;5092327;28;20031;-81
2022/10/11 03:16:34;;;;;;;9.52;5.75;;;5.60;97.60;;;;;;5090460;28;20165;-81
2022/10/11 03:19:01;;;;;;;12.57;5.53;;;5.60;97.60;;;;;;5089119;28;20025;-82
2022/10/11 03:21:26;;;;;;;7.38;5.35;;;5.60;97.50;;;;;;5063225;28;20056;-80
2022/10/11 03:23:52;;;;;;;8.02;5.70;;;5.50;97.60;;;;;;5087670;28;20059;-82
2022/10/11 03:26:18;;;;;;;13.43;5.95;;;5.50;97.60;;;;;;5074355;28;20044;-80
2022/10/11 03:28:44;;;;;;;10.77;5.45;;;5.50;97.60;;;;;;5101394;28;20031;-80
2022/10/11 03:31:11;;;;;;;7.95;5.53;;;5.50;97.70;;;;;;5096154;28;20024;-81
2022/10/11 03:33:37;;;;;;;8.68;5.80;;;5.50;97.70;;;;;;5087743;28;20037;-81
2022/10/11 03:36:03;;;;;;;14.88;6.45;;;5.40;97.70;;;;;;5090028;28;20016;-80
2022/10/11 03:38:29;;;;;;;10.63;5.72;;;5.40;97.70;;;;;;5092620;28;20024;-80
2022/10/11 03:40:54;;;;;;;9.98;5.72;;;5.40;97.80;;;;;;5091751;28;20487;-82
2022/10/11 03:43:20;;;;;;;10.70;5.50;;;5.40;97.80;;;;;;5092058;28;20020;-81
2022/10/11 03:45:49;;;;;;;8.00;5.25;;;5.40;97.80;;;;;;5092556;28;20649;-80
2022/10/11 03:48:15;;;;;;;9.60;6.28;;;5.40;97.80;;;;;;5092638;28;20020;-81
2022/10/11 03:50:41;;;;;;;7.95;5.43;;;5.40;97.90;;;;;;5081593;28;20063;-81
2022/10/11 03:53:07;;;;;;;12.93;7.13;;;5.40;98.00;;;;;;5072021;28;20020;-84
2022/10/11 03:55:33;;;;;;;10.73;6.50;;;5.40;98.20;;;;;;5092639;28;20024;-81
2022/10/11 03:57:59;;;;;;;11.18;6.80;;;5.50;97.90;;;;;;5092716;28;20024;-82
2022/10/11 04:00:25;;;;;;;13.23;7.00;;;5.40;97.80;;;;;;5094531;28;20031;-84
2022/10/11 04:02:51;;;;;;;11.88;6.25;;;5.40;97.80;;;;;;5099445;28;20070;-80
2022/10/11 04:05:17;;;;;;;10.32;6.10;;;5.40;97.80;;;;;;5103910;28;20040;-83
2022/10/11 04:07:42;;;;;;;12.77;7.60;;;5.50;97.90;;;;;;5089654;28;20362;-82
2022/10/11 04:10:08;;;;;;;10.45;6.35;;;5.50;97.90;;;;;;5096231;28;20112;-82
2022/10/11 04:12:37;;;;;;;13.73;5.75;;;5.50;97.90;;;;;;5078202;28;20032;-82
2022/10/11 04:15:04;;;;;;;8.38;5.25;;;5.50;97.80;;;;;;5096857;28;20023;-81
2022/10/11 04:17:30;;;;;;;10.80;6.53;;;5.50;97.70;;;;;;5096514;28;20340;-82
2022/10/11 04:19:56;;;;;;;12.65;6.75;;;5.60;97.60;;;;;;5086776;28;20038;-82
2022/10/11 04:22:22;;;;;;;11.40;5.93;;;5.60;97.50;;;;;;5084483;28;20025;-84
2022/10/11 04:24:48;;;;;;;9.80;6.22;;;5.60;97.40;;;;;;5085640;28;20048;-83
2022/10/11 04:27:13;;;;;;;7.57;5.78;;;5.60;97.40;;;;;;5079555;28;20025;-83
2022/10/11 04:29:39;;;;;;;8.50;5.03;;;5.50;97.40;;;;;;5075577;28;20024;-84
2022/10/11 04:32:05;;;;;;;12.52;5.65;;;5.50;97.40;;;;;;5076607;28;20040;-81
2022/10/11 04:34:31;;;;;;;16.92;6.25;;;5.50;97.50;;;;;;5078042;28;20043;-82
2022/10/11 04:36:57;;;;;;;13.18;5.57;;;5.50;97.50;;;;;;5076649;28;20016;-84
2022/10/11 04:39:23;;;;;;;8.30;5.70;;;5.50;97.50;;;;;;5075466;28;20028;-82
2022/10/11 04:41:49;;;;;;;9.65;5.65;;;5.50;97.40;;;;;;5074977;28;20107;-83
2022/10/11 04:44:15;;;;;;;9.65;5.70;;;5.50;97.50;;;;;;5074671;28;20075;-83
2022/10/11 04:46:41;;;;;;;14.80;7.78;;;5.50;97.50;;;;;;5074776;28;20124;-84
2022/10/11 04:49:07;;;;;;;8.80;6.30;;;5.50;97.50;;;;;;5074602;28;20025;-82
2022/10/11 04:51:32;;;;;;;9.15;5.72;;;5.60;97.50;;;;;;5056818;28;20021;-82
2022/10/11 04:53:59;;;;;;;10.43;5.93;;;5.60;97.70;;;;;;5078308;28;20073;-84
2022/10/11 04:56:25;;;;;;;8.70;5.75;;;5.60;97.40;;;;;;5075825;28;20086;-85
2022/10/11 04:58:53;;;;;;;9.48;5.82;;;5.60;97.30;;;;;;5075987;28;20408;-87
2022/10/11 05:01:19;;;;;;;7.90;5.65;;;5.70;97.30;;;;;;5056659;28;20154;-84
2022/10/11 05:03:45;;;;;;;14.43;6.30;;;5.70;97.30;;;;;;5075551;28;20020;-84
2022/10/11 05:06:11;;;;;;;10.98;5.65;;;5.80;97.10;;;;;;5058450;28;20405;-83
2022/10/11 05:08:38;;;;;;;8.80;5.95;;;5.80;97.00;;;;;;5087122;28;20020;-82
2022/10/11 05:11:07;;;;;;;10.32;6.75;;;5.80;96.90;;;;;;5075314;28;20031;-83
2022/10/11 05:13:34;;;;;;;23.45;8.60;;;5.90;96.80;;;;;;5081034;28;20028;-83
2022/10/11 05:16:01;;;;;;;14.90;9.55;;;5.90;96.80;;;;;;5069604;28;20024;-81
2022/10/11 05:18:28;;;;;;;18.17;9.20;;;6.00;96.80;;;;;;5080261;28;20458;-84
2022/10/11 05:21:05;;;;;;;16.33;8.60;;;6.00;96.60;;;;;;5081647;28;20047;-81
2022/10/11 05:23:33;;;;;;;12.98;7.07;;;6.10;96.50;;;;;;5082440;28;20116;-82
2022/10/11 05:25:59;;;;;;;;;;;6.10;96.30;;;;;;5056490;28;20028;-83
2022/10/11 05:28:26;;;;;;;10.80;6.00;;;6.20;96.20;;;;;;5074959;28;19915;-83
2022/10/11 05:30:52;;;;;;;9.77;5.57;;;6.10;96.00;;;;;;5075979;28;20100;-82
2022/10/11 05:33:19;;;;;;;9.77;5.03;;;6.20;96.00;;;;;;5057045;28;20040;-83
2022/10/11 05:35:44;;;;;;;12.48;5.47;;;6.30;95.90;;;;;;5079696;28;20025;-84
2022/10/11 05:38:10;;;;;;;9.13;4.82;;;6.30;95.80;;;;;;5084361;28;20044;-84
2022/10/11 05:40:37;;;;;;;13.02;5.75;;;6.30;95.80;;;;;;5076470;28;20032;-84
2022/10/11 05:43:04;;;;;;;10.82;5.93;;;6.40;95.60;;;;;;5059579;28;20009;-82
2022/10/11 05:45:31;;;;;;;7.82;5.75;;;6.40;95.50;;;;;;5073944;28;20040;-84
2022/10/11 05:48:04;;;;;;;8.95;5.82;;;6.50;95.40;;;;;;5066199;28;20482;-84
2022/10/11 05:50:30;;;;;;;9.50;6.20;;;6.40;95.30;;;;;;5074957;28;20351;-82
2022/10/11 05:52:57;;;;;;;12.43;6.15;;;6.50;95.30;;;;;;5073847;28;20082;-86
2022/10/11 05:55:23;;;;;;;11.02;6.03;;;6.50;95.30;;;;;;5074258;28;20028;-84
2022/10/11 05:57:55;;;;;;;9.45;5.88;;;6.50;95.20;;;;;;5057304;28;20025;-80
2022/10/11 06:00:21;;;;;;;14.43;6.07;;;6.50;95.10;;;;;;5082268;28;20027;-85
2022/10/11 06:02:47;;;;;;;10.35;5.60;;;6.60;95.10;;;;;;5099984;28;20032;-88
2022/10/11 06:05:13;;;;;;;14.00;6.05;;;6.60;95.10;;;;;;5099830;28;20032;-85
2022/10/11 06:07:39;;;;;;;11.13;5.97;;;6.60;95.10;;;;;;5088666;28;20024;-86
2022/10/11 06:10:06;;;;;;;12.15;6.40;;;6.60;95.20;;;;;;5086026;28;20012;-86
2022/10/11 06:12:32;;;;;;;15.95;7.00;;;6.70;95.20;;;;;;5074029;28;20132;-84
2022/10/11 06:14:58;;;;;;;11.45;6.13;;;6.70;95.10;;;;;;5055889;28;20501;-85
2022/10/11 06:17:24;;;;;;;10.38;6.60;;;6.80;95.00;;;;;;5080210;28;20036;-83
2022/10/11 06:19:50;;;;;;;16.50;6.30;;;6.80;95.00;;;;;;5076344;28;20048;-84
2022/10/11 06:22:17;;;;;;;14.85;5.93;;;6.90;95.10;;;;;;5078970;28;20024;-84
2022/10/11 06:24:44;;;;;;;9.45;5.55;;;6.90;95.00;;;;;;5080678;28;20036;-84
2022/10/11 06:27:17;;;;;;;16.05;6.07;;;6.90;94.80;;;;;;5080376;28;20384;-85
2022/10/11 06:29:58;;;;;;;;;;;;;;;;;;;;;
2022/10/11 06:32:31;;;;;;;11.23;5.75;;;7.00;94.70;;;;;;5090106;28;20097;-86
2022/10/11 06:34:57;;;;;;;10.73;6.63;;;7.00;94.40;;;;;;5074076;28;20067;-86
2022/10/11 06:37:28;;;;;;;10.32;6.85;;;7.10;94.30;;;;;;5095105;28;20044;-85
2022/10/11 06:40:00;;;;;;;14.45;6.38;;;7.20;94.20;;;;;;5070720;28;20012;-84
2022/10/11 06:42:32;;;;;;;10.20;5.60;;;7.20;94.00;;;;;;5082683;28;20020;-84
2022/10/11 06:45:13;;;;;;;9.52;5.68;;;7.30;93.80;;;;;;5088606;28;20059;-89
2022/10/11 06:47:39;;;;;;;7.90;5.40;;;7.40;93.70;;;;;;5081656;28;20028;-83
2022/10/11 06:50:13;;;;;;;7.90;4.72;;;7.40;93.60;;;;;;5075500;28;20409;-84
2022/10/11 06:52:42;;;;;;;9.68;4.97;;;7.50;93.30;;;;;;5079436;28;20032;-86
2022/10/11 06:55:09;;;;;;;8.98;5.10;;;7.60;93.10;;;;;;5076633;28;20495;-83
2022/10/11 06:57:35;;;;;;;8.17;4.47;;;7.60;93.10;;;;;;5092941;28;20016;-84
2022/10/11 07:00:15;;;;;;;9.38;5.00;;;7.70;92.50;;;;;;5089253;28;20260;-85
2022/10/11 07:02:48;;;;;;;9.30;4.75;;;7.80;92.40;;;;;;5087836;28;20103;-86
2022/10/11 07:05:28;;;;;;;7.63;4.72;;;7.90;92.30;;;;;;5109390;28;20057;-86
2022/10/11 07:08:00;;;;;;;12.43;6.70;;;7.90;92.10;;;;;;5092563;28;20020;-85
2022/10/11 07:10:47;;;;;;;7.43;5.07;;;8.00;92.00;;;;;;5081301;28;20020;-83
2022/10/11 07:13:29;;;;;;;9.82;4.70;;;8.10;91.80;;;;;;5103387;28;20042;-87
2022/10/11 07:16:04;;;;;;;10.15;4.80;;;8.20;91.80;;;;;;5076850;28;20150;-83
2022/10/11 07:18:30;;;;;;;12.63;4.15;;;9.20;91.90;;;;;;5095984;28;20040;-86
2022/10/11 07:20:56;;;;;;;6.35;3.97;;;;;;;;;;5081071;28;20009;-85
2022/10/11 07:23:25;;;;;;;9.18;4.07;;;;;;;;;;5096958;28;20024;-85
2022/10/11 07:25:56;;;;;;;8.50;4.07;;;;;;;;;;5080683;28;20032;-86
2022/10/11 07:28:23;;;;;;;6.47;3.78;;;;;;;;;;5082150;28;20046;-85
2022/10/11 07:30:53;;;;;;;9.70;5.00;;;;;;;;;;5080208;28;20055;-86
2022/10/11 07:33:25;;;;;;;10.07;4.07;;;;;;;;;;5070377;28;20048;-86
2022/10/11 07:35:56;;;;;;;10.15;6.10;;;;;;;;;;5080029;28;20428;-84
2022/10/11 07:38:22;;;;;;;8.02;4.07;;;;;;;;;;5082319;28;20031;-83
2022/10/11 07:40:51;;;;;;;8.45;4.25;;;;;;;;;;5100171;28;20054;-83
2022/10/11 07:43:18;;;;;;;23.17;10.68;;;;;;;;;;5084340;28;20024;-86
2022/10/11 07:45:47;;;;;;;13.13;3.53;;;;;;;;;;5072437;28;20048;-85
2022/10/11 07:48:14;;;;;;;5.90;3.47;;;;;;;;;;5084702;28;20051;-84
2022/10/11 07:50:48;;;;;;;6.50;3.83;;;;;;;;;;5104329;28;20028;-86
2022/10/11 07:53:21;;;;;;;6.30;2.92;;;;;;;;;;5086112;28;20029;-84
2022/10/11 07:56:11;;;;;;;6.93;4.00;;;;;;;;;;5080049;28;20020;-86
2022/10/11 07:58:40;;;;;;;4.85;2.90;;;;;;;;;;5096365;28;20025;-87
2022/10/11 08:01:07;;;;;;;7.82;2.78;;;;;;;;;;5108434;28;20016;-85
2022/10/11 08:03:47;;;;;;;3.63;2.30;;;;;;;;;;5109885;28;20031;-86
2022/10/11 08:06:19;;;;;;;2.72;2.10;;;;;;;;;;5092354;28;20040;-86
2022/10/11 08:08:46;;;;;;;4.10;2.15;;;;;;;;;;5096936;28;20016;-86
2022/10/11 08:11:22;;;;;;;10.90;2.50;;;;;;;;;;5088519;28;20058;-87
2022/10/11 08:13:49;;;;;;;9.90;3.57;;;;;;;;;;5069630;28;20025;-86
2022/10/11 08:16:16;;;;;;;8.15;3.45;;;;;;;;;;5078830;28;20049;-85
2022/10/11 08:18:43;;;;;;;8.93;3.55;;;;;;;;;;5070892;28;20138;-86
2022/10/11 08:21:12;;;;;;;5.90;2.83;;;;;;;;;;5095222;28;20082;-86
2022/10/11 08:23:39;;;;;;;5.72;2.72;;;;;;;;;;5079719;28;20040;-86
2022/10/11 08:26:05;;;;;;;12.40;3.47;;;;;;;;;;5095480;28;20047;-86
2022/10/11 08:28:38;;;;;;;4.18;2.60;;;;;;;;;;5097789;28;20025;-85
2022/10/11 08:31:07;;;;;;;6.70;3.60;;;;;;;;;;5081271;28;20020;-85
2022/10/11 08:33:34;;;;;;;9.00;3.40;;;;;;;;;;5075065;28;20143;-85
2022/10/11 08:36:18;;;;;;;4.40;3.10;;;;;;;;;;5100771;28;20021;-86
2022/10/11 08:38:47;;;;;;;6.97;4.47;;;;;;;;;;5065366;28;20020;-84
2022/10/11 08:41:29;;;;;;;9.27;3.03;;;10.70;90.50;;;;;;5086507;28;20028;-87
2022/10/11 08:44:34;;;;;;;4.18;2.85;;;20.50;46.90;;;;;;5077942;28;20024;-87
2022/10/11 08:47:04;;;;;;;9.65;5.00;;;;;;;;;;5064455;28;20098;-88
2022/10/11 08:49:35;;;;;;;9.60;3.75;;;;;;;;;;5079802;28;20031;-85
2022/10/11 08:52:04;;;;;;;9.65;4.78;;;;;;;;;;5102105;28;20099;-85
2022/10/11 08:54:43;;;;;;;7.88;3.80;;;;;;;;;;5081976;28;20528;-86
2022/10/11 08:57:22;;;;;;;12.00;5.40;;;21.20;45.30;;;;;;5073088;28;20335;-86
2022/10/11 09:00:06;;;;;;;6.15;4.15;;;21.10;43.00;;;;;;5084893;28;20032;-85
2022/10/11 09:02:57;;;;;;;6.80;3.40;;;20.60;42.30;;;;;;5080402;28;20427;-87
2022/10/11 09:05:34;;;;;;;7.95;4.70;;;20.20;42.80;;;;;;5094975;28;20431;-87
2022/10/11 09:08:02;;;;;;;8.25;3.60;;;20.00;43.00;;;;;;5085177;28;20020;-86
2022/10/11 09:10:34;;;;;;;8.32;3.58;;;20.60;42.70;;;;;;5096584;28;20039;-86
2022/10/11 09:13:16;;;;;;;9.27;3.25;;;;;;;;;;5097955;28;20477;-86
2022/10/11 09:15:52;;;;;;;9.75;3.42;;;;;;;;;;5062134;28;20115;-86
2022/10/11 09:18:29;;;;;;;5.78;4.15;;;21.50;41.50;;;;;;5095130;28;20028;-87
2022/10/11 09:20:55;;;;;;;6.35;3.20;;;24.50;36.30;;;;;;5080816;28;20021;-85
2022/10/11 09:23:52;;;;;;;7.80;4.72;;;23.90;35.80;;;;;;5096454;28;20016;-85
2022/10/11 09:26:34;;;;;;;6.03;3.80;;;23.40;37.20;;;;;;5077737;28;20093;-86
2022/10/11 09:29:24;;;;;;;10.32;3.42;;;22.60;37.50;;;;;;5076504;28;20059;-86
2022/10/11 09:31:53;;;;;;;4.40;3.17;;;23.10;37.50;;;;;;5086066;28;20084;-86
2022/10/11 09:34:24;;;;;;;3.65;3.25;;;23.40;36.50;;;;;;5072558;28;20036;-87
2022/10/11 09:37:10;;;;;;;4.93;2.83;;;23.40;36.40;;;;;;5074461;28;20021;-86
2022/10/11 09:39:44;;;;;;;4.80;2.57;;;23.20;36.90;;;;;;5073176;28;20550;-86
2022/10/11 09:42:11;;;;;;;6.35;4.13;;;23.30;35.40;;;;;;5075101;28;20099;-85
2022/10/11 09:44:47;;;;;;;8.57;3.70;;;23.20;36.30;;;;;;5074701;28;20021;-85
2022/10/11 09:47:21;;;;;;;6.10;3.22;;;23.40;36.10;;;;;;5072711;28;20075;-86
2022/10/11 09:50:24;;;;;;;9.10;3.53;;;23.00;36.50;;;;;;5058837;28;20021;-85
2022/10/11 09:52:55;;;;;;;5.72;3.10;;;23.60;36.60;;;;;;5069901;28;20134;-86
2022/10/11 09:55:30;;;;;;;4.35;3.03;;;23.80;34.90;;;;;;5063921;28;20021;-87
2022/10/11 09:57:56;;;;;;;9.38;3.60;;;23.20;35.90;;;;;;5059865;28;20128;-88
2022/10/11 10:00:31;;;;;;;8.18;3.03;;;23.10;35.90;;;;;;5074205;28;20020;-85
2022/10/11 10:03:03;;;;;;;6.32;2.75;;;23.80;35.00;;;;;;5075801;28;20028;-87
2022/10/11 10:05:35;;;;;;;6.70;3.67;;;23.70;34.70;;;;;;5067453;28;20036;-86
2022/10/11 10:08:05;;;;;;;12.70;4.07;;;22.80;35.60;;;;;;5077731;28;20020;-90
2022/10/11 10:10:34;;;;;;;6.75;3.28;;;21.60;36.90;;;;;;5078231;28;20020;-85
2022/10/11 10:13:03;;;;;;;5.72;4.00;;;20.70;38.20;;;;;;5076835;28;20024;-85
2022/10/11 10:15:35;;;;;;;8.40;3.83;;;19.70;39.20;;;;;;5088620;28;20021;-85
2022/10/11 10:18:04;;;;;;;7.90;3.65;;;18.70;41.10;;;;;;5085310;28;20046;-86
2022/10/11 10:20:38;;;;;;;7.40;3.42;;;17.80;42.40;;;;;;5082997;28;20033;-83
2022/10/11 10:23:25;;;;;;;5.63;3.35;;;16.90;44.00;;;;;;5084772;28;20012;-85
2022/10/11 10:25:53;;;;;;;6.20;3.15;;;16.00;45.20;;;;;;5069630;28;20508;-86
2022/10/11 10:28:29;;;;;;;4.93;2.35;;;15.30;46.30;;;;;;5078494;28;20035;-85
2022/10/11 10:30:58;;;;;;;6.60;3.35;;;14.80;47.30;;;;;;5071189;28;20021;-86
2022/10/11 10:33:28;;;;;;;6.03;3.15;;;;;;;;;;5083278;28;20496;-86
2022/10/11 10:36:04;;;;;;;6.35;2.70;;;;;;;;;;5079553;28;20052;-87
2022/10/11 10:38:49;;;;;;;7.88;3.72;;;;;;;;;;5061722;28;20025;-86
2022/10/11 10:41:18;;;;;;;4.55;2.80;;;;;;;;;;5064754;28;20094;-84
2022/10/11 10:43:51;;;;;;;4.70;2.80;;;14.40;47.50;;;;;;5080488;28;20031;-85
2022/10/11 10:47:08;;;;;;;6.68;3.17;;;13.50;50.80;;;;;;5082143;28;20036;-85
2022/10/11 10:49:44;;;;;;;7.93;3.67;;;13.40;51.00;;;;;;5052487;28;20040;-86
2022/10/11 10:52:28;;;;;;;8.57;4.00;;;13.20;51.90;;;;;;5084769;28;20043;-84
2022/10/11 10:54:54;;;;;;;6.70;2.83;;;;;;;;;;5072813;28;20111;-85
2022/10/11 10:57:31;;;;;;;9.43;3.38;;;;;;;;;;5063548;28;20081;-87
2022/10/11 11:00:01;;;;;;;5.65;3.50;;;;;;;;;;5075113;28;20031;-86
2022/10/11 11:02:27;;;;;;;3.95;2.90;;;;;;;;;;5077490;28;20024;-84
2022/10/11 11:05:06;;;;;;;3.95;2.75;;;;;;;;;;5075188;28;20024;-85
2022/10/11 11:07:55;;;;;;;5.38;3.10;;;;;;;;;;5072907;28;20021;-85
2022/10/11 11:10:24;;;;;;;7.60;2.38;;;;;;;;;;5055968;28;20063;-84
2022/10/11 11:12:50;;;;;;;4.45;2.70;;;;;;;;;;5079569;28;20025;-85
2022/10/11 11:15:26;;;;;;;4.90;2.50;;;;;;;;;;5081657;28;20021;-86
2022/10/11 11:17:56;;;;;;;5.53;2.20;;;;;;;;;;5066136;28;20021;-85
2022/10/11 11:20:59;;;;;;;4.93;2.22;;;12.90;49.70;;;;;;5062982;28;20032;-83
2022/10/11 11:23:59;;;;;;;3.75;2.63;;;12.50;49.30;;;;;;5080353;28;20059;-86
2022/10/11 11:27:05;;;;;;;5.43;2.65;;;12.50;50.40;;;;;;5070181;28;20032;-86
2022/10/11 11:30:23;;;;;;;9.23;2.80;;;12.40;50.40;;;;;;5077585;28;20029;-86
2022/10/11 11:33:32;;;;;;;7.00;2.90;;;12.40;50.30;;;;;;5001694;28;20038;-87
2022/10/11 11:36:10;;;;;;;4.53;2.67;;;12.30;50.50;;;;;;5020600;28;20037;-84
2022/10/11 11:38:39;;;;;;;;;;;12.30;51.10;;;;;;5069776;28;20029;-86
2022/10/11 11:41:20;;;;;;;7.10;3.08;;;12.20;50.40;;;;;;5075901;28;19918;-85
2022/10/11 11:44:13;;;;;;;5.07;2.60;;;12.20;51.20;;;;;;5088297;28;20017;-85
2022/10/11 11:47:04;;;;;;;7.18;3.10;;;12.20;51.40;;;;;;5065117;28;20032;-87
2022/10/11 11:49:45;;;;;;;7.65;3.08;;;12.20;51.50;;;;;;5069465;28;20025;-86
2022/10/11 11:52:27;;;;;;;5.72;2.60;;;12.10;50.90;;;;;;5082726;28;20382;-84
2022/10/11 11:55:13;;;;;;;6.50;2.78;;;12.10;51.40;;;;;;5070037;28;20013;-87
2022/10/11 11:58:16;;;;;;;4.00;2.60;;;12.10;51.60;;;;;;5066693;28;20108;-85
2022/10/11 12:01:15;;;;;;;6.63;2.47;;;12.10;50.90;;;;;;5062650;28;20020;-83
2022/10/11 12:03:53;;;;;;;4.18;2.50;;;12.10;49.20;;;;;;5065668;28;20021;-84
2022/10/11 12:06:29;;;;;;;9.00;2.83;;;12.10;49.20;;;;;;5068081;28;20053;-83
2022/10/11 12:09:44;;;;;;;5.72;3.13;;;12.20;49.50;;;;;;5077603;28;20013;-84
2022/10/11 12:12:31;;;;;;;6.25;2.40;;;12.10;49.00;;;;;;5075642;28;20037;-83
2022/10/11 12:15:34;;;;;;;6.22;3.03;;;12.10;49.30;;;;;;5070107;28;20029;-85
2022/10/11 12:18:12;;;;;;;9.88;3.78;;;12.10;49.80;;;;;;5089940;28;20020;-82
2022/10/11 12:20:46;;;;;;;4.47;2.90;;;12.10;50.10;;;;;;5087516;28;20032;-85
2022/10/11 12:23:31;;;;;;;7.65;3.45;;;12.10;50.80;;;;;;5085180;28;20088;-81
2022/10/11 12:26:22;;;;;;;6.47;3.08;;;12.10;51.00;;;;;;5091483;28;20037;-85
2022/10/11 12:29:18;;;;;;;4.90;2.85;;;12.10;51.20;;;;;;5095178;28;20539;-84
2022/10/11 12:32:09;;;;;;;6.95;3.22;;;12.10;51.30;;;;;;5078906;28;20048;-84
2022/10/11 12:34:54;;;;;;;7.57;3.50;;;12.10;51.30;;;;;;5079314;28;20045;-85
2022/10/11 12:37:50;;;;;;;6.93;2.97;;;12.00;51.00;;;;;;5079492;28;20088;-83
2022/10/11 12:41:19;;;;;;;8.95;3.55;;;12.10;50.00;;;;;;5057340;28;20029;-85
2022/10/11 12:43:48;;;;;;;5.80;3.03;;;12.10;50.00;;;;;;4977574;28;20043;-83
2022/10/11 12:46:32;;;;;;;18.90;4.22;;;12.10;50.10;;;;;;5001425;28;20035;-84
2022/10/11 12:49:40;;;;;;;7.82;3.97;;;12.00;50.70;;;;;;5055435;28;20040;-84
2022/10/11 12:52:16;;;;;;;8.13;4.00;;;12.00;50.90;;;;;;5045857;28;20017;-85
2022/10/11 12:54:56;;;;;;;5.15;2.35;;;12.00;51.30;;;;;;5057356;28;20029;-85
2022/10/11 12:57:40;;;;;;;4.97;3.13;;;12.00;51.10;;;;;;5043301;28;20024;-86
2022/10/11 13:00:19;;;;;;;4.40;2.85;;;12.00;51.20;;;;;;5058757;28;20022;-84
2022/10/11 13:02:48;;;;;;;4.85;2.90;;;12.00;50.40;;;;;;5058489;28;20021;-85
2022/10/11 13:05:28;;;;;;;9.38;3.53;;;12.00;50.50;;;;;;5076654;28;20029;-85
2022/10/11 13:07:58;;;;;;;6.68;3.00;;;11.90;50.90;;;;;;5072532;28;20032;-84
2022/10/11 13:10:34;;;;;;;11.57;4.30;;;11.90;51.30;;;;;;5047264;28;20453;-86
2022/10/11 13:13:09;;;;;;;6.05;3.63;;;11.90;52.20;;;;;;5059316;28;20017;-86
2022/10/11 13:15:42;;;;;;;5.88;3.95;;;11.80;53.70;;;;;;5044998;28;20071;-86
2022/10/11 13:18:16;;;;;;;9.60;4.03;;;11.80;54.40;;;;;;5062961;28;20033;-85
2022/10/11 13:20:43;;;;;;;13.52;3.75;;;11.80;54.90;;;;;;5073366;28;20023;-83
2022/10/11 13:23:25;;;;;;;9.17;4.03;;;11.70;54.90;;;;;;5065251;28;20026;-84
2022/10/11 13:25:52;;;;;;;7.78;4.00;;;11.70;55.20;;;;;;5052932;28;20139;-86
2022/10/11 13:28:19;;;;;;;8.15;3.67;;;11.70;55.00;;;;;;5052193;28;20021;-83
2022/10/11 13:31:04;;;;;;;8.43;4.45;;;;;;;;;;5071495;28;20032;-84
2022/10/11 13:33:31;;;;;;;9.02;4.40;;;;;;;;;;5062333;28;20057;-85
2022/10/11 13:35:59;;;;;;;11.30;4.32;;;;;;;;;;5073390;28;20432;-84
2022/10/11 13:38:32;;;;;;;9.20;4.13;;;;;;;;;;5076312;28;20075;-84
2022/10/11 13:41:00;;;;;;;6.65;3.10;;;;;;;;;;5077370;28;20098;-87
2022/10/11 13:43:26;;;;;;;;;;;;;;;;;;5077711;28;20028;-84